createdAt,value
2018-06-03T00:00:32.207Z,81.3
2018-06-03T00:01:33.566Z,81.5
2018-06-03T00:02:34.927Z,81.3
2018-06-03T00:03:36.279Z,81.3
2018-06-03T00:04:37.649Z,81.8
2018-06-03T00:05:39.006Z,81.3
2018-06-03T00:06:40.367Z,81.6
2018-06-03T00:07:41.893Z,81.7
2018-06-03T00:08:43.251Z,81.6
2018-06-03T00:09:44.622Z,82.2
2018-06-03T00:10:45.967Z,81.5
2018-06-03T00:11:47.325Z,82.1
2018-06-03T00:12:48.692Z,81.9
2018-06-03T00:13:50.058Z,81.9
2018-06-03T00:14:51.429Z,82.7
2018-06-03T00:15:52.780Z,82.4
2018-06-03T00:16:54.187Z,82.5
2018-06-03T00:17:55.526Z,82.3
2018-06-03T00:18:56.900Z,82.9
2018-06-03T00:19:58.263Z,82.7
2018-06-03T00:20:59.622Z,82.8
2018-06-03T00:22:00.988Z,82.6
2018-06-03T00:23:02.371Z,82.7
2018-06-03T00:24:03.728Z,82.6
2018-06-03T00:25:05.095Z,82.5
2018-06-03T00:26:06.454Z,82.7
2018-06-03T00:27:07.812Z,83.0
2018-06-03T00:28:09.174Z,82.9
2018-06-03T00:29:10.533Z,82.8
2018-06-03T00:30:11.899Z,82.9
2018-06-03T00:31:13.251Z,82.9
2018-06-03T00:32:14.614Z,83.1
2018-06-03T00:33:16.082Z,83.5
2018-06-03T00:34:17.441Z,83.4
2018-06-03T00:35:18.805Z,83.3
2018-06-03T00:36:20.157Z,83.6
2018-06-03T00:37:21.513Z,83.8
2018-06-03T00:38:22.877Z,83.6
2018-06-03T00:39:24.240Z,83.9
2018-06-03T00:40:25.605Z,83.8
2018-06-03T00:41:26.953Z,84.1
2018-06-03T00:42:28.314Z,83.9
2018-06-03T00:43:29.677Z,83.9
2018-06-03T00:44:31.033Z,84.3
2018-06-03T00:45:32.414Z,84.2
2018-06-03T00:46:33.779Z,84.5
2018-06-03T00:47:35.136Z,84.2
2018-06-03T00:48:36.504Z,84.4
2018-06-03T00:49:37.872Z,84.4
2018-06-03T00:50:39.231Z,84.3
2018-06-03T00:51:40.578Z,84.3
2018-06-03T00:52:41.938Z,84.2
2018-06-03T00:53:43.300Z,84.5
2018-06-03T00:54:44.665Z,84.5
2018-06-03T00:55:46.027Z,84.4
2018-06-03T00:56:47.392Z,84.4
2018-06-03T00:57:48.753Z,84.7
2018-06-03T00:58:50.100Z,84.8
2018-06-03T00:59:51.456Z,85.1
2018-06-03T01:00:52.822Z,84.6
2018-06-03T01:01:54.181Z,85.0
2018-06-03T01:02:55.533Z,84.9
2018-06-03T01:03:56.899Z,84.6
2018-06-03T01:04:58.251Z,85.1
2018-06-03T01:05:59.607Z,84.8
2018-06-03T01:07:00.972Z,85.0
2018-06-03T01:08:02.362Z,84.9
2018-06-03T01:09:03.721Z,85.1
2018-06-03T01:10:05.084Z,84.7
2018-06-03T01:11:06.445Z,85.0
2018-06-03T01:12:07.810Z,84.8
2018-06-03T01:13:09.158Z,84.6
2018-06-03T01:14:10.516Z,85.2
2018-06-03T01:15:11.874Z,85.2
2018-06-03T01:16:13.238Z,85.2
2018-06-03T01:17:14.591Z,85.5
2018-06-03T01:18:15.950Z,85.6
2018-06-03T01:19:17.312Z,85.6
2018-06-03T01:20:18.672Z,85.9
2018-06-03T01:21:20.030Z,85.9
2018-06-03T01:22:21.400Z,85.7
2018-06-03T01:23:22.732Z,85.5
2018-06-03T01:24:24.095Z,85.9
2018-06-03T01:25:25.463Z,85.6
2018-06-03T01:26:26.826Z,86.1
2018-06-03T01:27:28.189Z,86.2
2018-06-03T01:28:29.554Z,86.0
2018-06-03T01:29:30.903Z,86.2
2018-06-03T01:30:32.265Z,85.8
2018-06-03T01:31:33.630Z,85.7
2018-06-03T01:32:34.990Z,86.1
2018-06-03T01:33:36.347Z,86.2
2018-06-03T01:34:37.706Z,86.2
2018-06-03T01:35:39.058Z,86.5
2018-06-03T01:36:40.418Z,86.4
2018-06-03T01:37:41.962Z,86.0
2018-06-03T01:38:43.341Z,86.2
2018-06-03T01:39:44.701Z,86.3
2018-06-03T01:40:46.063Z,86.5
2018-06-03T01:41:47.427Z,86.4
2018-06-03T01:42:48.787Z,86.5
2018-06-03T01:43:50.146Z,86.4
2018-06-03T01:44:51.508Z,86.5
2018-06-03T01:45:52.866Z,86.5
2018-06-03T01:46:54.293Z,86.4
2018-06-03T01:47:55.649Z,86.5
2018-06-03T01:48:57.020Z,86.5
2018-06-03T01:49:58.381Z,86.5
2018-06-03T01:50:59.736Z,87.1
2018-06-03T01:52:01.098Z,87.1
2018-06-03T01:53:02.494Z,87.1
2018-06-03T01:54:03.847Z,86.8
2018-06-03T01:55:05.207Z,86.5
2018-06-03T01:56:06.567Z,86.9
2018-06-03T01:57:07.930Z,86.8
2018-06-03T01:58:09.292Z,86.9
2018-06-03T01:59:10.649Z,87.1
2018-06-03T02:00:12.011Z,86.9
2018-06-03T02:01:13.363Z,86.7
2018-06-03T02:02:14.736Z,86.6
2018-06-03T02:03:16.085Z,87.4
2018-06-03T02:04:17.444Z,87.3
2018-06-03T02:05:18.823Z,87.2
2018-06-03T02:06:20.180Z,87.3
2018-06-03T02:07:21.544Z,87.3
2018-06-03T02:08:22.894Z,86.9
2018-06-03T02:09:24.257Z,87.1
2018-06-03T02:10:25.624Z,87.8
2018-06-03T02:11:26.974Z,87.7
2018-06-03T02:12:28.333Z,87.7
2018-06-03T02:13:29.686Z,87.6
2018-06-03T02:14:31.047Z,87.8
2018-06-03T02:15:32.415Z,87.8
2018-06-03T02:16:33.785Z,87.6
2018-06-03T02:17:35.141Z,87.7
2018-06-03T02:18:36.496Z,87.4
2018-06-03T02:19:37.853Z,87.9
2018-06-03T02:20:39.208Z,87.7
2018-06-03T02:21:41.264Z,88.0
2018-06-03T02:22:42.631Z,87.9
2018-06-03T02:23:43.993Z,87.8
2018-06-03T02:24:45.355Z,88.1
2018-06-03T02:25:46.715Z,88.3
2018-06-03T02:26:48.078Z,88.1
2018-06-03T02:27:49.438Z,88.1
2018-06-03T02:28:50.807Z,88.3
2018-06-03T02:29:52.172Z,88.1
2018-06-03T02:30:53.525Z,88.5
2018-06-03T02:31:54.882Z,88.6
2018-06-03T02:32:56.247Z,88.5
2018-06-03T02:33:57.603Z,88.4
2018-06-03T02:34:58.961Z,88.5
2018-06-03T02:36:00.333Z,88.2
2018-06-03T02:37:01.695Z,88.3
2018-06-03T02:38:03.058Z,88.2
2018-06-03T02:39:04.415Z,88.2
2018-06-03T02:40:05.767Z,88.2
2018-06-03T02:41:07.132Z,88.2
2018-06-03T02:42:08.488Z,88.0
2018-06-03T02:43:09.853Z,88.2
2018-06-03T02:44:11.210Z,88.9
2018-06-03T02:45:12.577Z,88.7
2018-06-03T02:46:13.934Z,88.9
2018-06-03T02:47:15.288Z,89.0
2018-06-03T02:48:16.660Z,88.9
2018-06-03T02:49:18.014Z,88.4
2018-06-03T02:50:19.356Z,88.7
2018-06-03T02:51:20.730Z,88.7
2018-06-03T02:52:22.072Z,88.7
2018-06-03T02:53:23.430Z,88.9
2018-06-03T02:54:24.788Z,88.9
2018-06-03T02:55:26.144Z,89.1
2018-06-03T02:56:27.505Z,89.1
2018-06-03T02:57:28.864Z,89.1
2018-06-03T02:58:30.227Z,89.0
2018-06-03T02:59:32.509Z,89.3
2018-06-03T03:00:33.859Z,88.9
2018-06-03T03:01:35.222Z,89.3
2018-06-03T03:02:36.574Z,88.7
2018-06-03T03:03:37.943Z,89.3
2018-06-03T03:04:39.413Z,89.2
2018-06-03T03:05:40.778Z,89.1
2018-06-03T03:06:42.133Z,89.3
2018-06-03T03:07:43.499Z,89.0
2018-06-03T03:08:44.852Z,89.1
2018-06-03T03:09:46.212Z,89.4
2018-06-03T03:10:47.568Z,89.4
2018-06-03T03:11:48.936Z,89.4
2018-06-03T03:12:50.292Z,89.3
2018-06-03T03:13:51.666Z,89.0
2018-06-03T03:14:53.019Z,89.0
2018-06-03T03:15:54.375Z,89.3
2018-06-03T03:16:55.740Z,89.6
2018-06-03T03:17:57.095Z,89.4
2018-06-03T03:19:00.060Z,89.2
2018-06-03T03:20:01.440Z,89.7
2018-06-03T03:21:02.772Z,89.8
2018-06-03T03:22:04.130Z,89.6
2018-06-03T03:23:05.496Z,89.7
2018-06-03T03:24:06.857Z,89.7
2018-06-03T03:25:08.213Z,89.5
2018-06-03T03:26:09.577Z,89.6
2018-06-03T03:27:10.943Z,89.8
2018-06-03T03:28:12.326Z,90.2
2018-06-03T03:29:13.680Z,89.5
2018-06-03T03:30:15.043Z,89.9
2018-06-03T03:31:16.403Z,90.2
2018-06-03T03:32:17.775Z,89.6
2018-06-03T03:33:19.141Z,89.6
2018-06-03T03:34:20.505Z,89.4
2018-06-03T03:35:21.874Z,90.1
2018-06-03T03:36:23.238Z,90.0
2018-06-03T03:37:24.603Z,89.8
2018-06-03T03:38:25.965Z,90.1
2018-06-03T03:39:27.323Z,90.3
2018-06-03T03:40:28.680Z,90.3
2018-06-03T03:41:30.043Z,90.2
2018-06-03T03:42:33.133Z,90.5
2018-06-03T03:43:33.632Z,90.2
2018-06-03T03:44:35.000Z,90.6
2018-06-03T03:45:36.373Z,90.4
2018-06-03T03:46:37.733Z,90.5
2018-06-03T03:47:39.093Z,90.5
2018-06-03T03:48:40.454Z,90.4
2018-06-03T03:49:41.847Z,90.4
2018-06-03T03:50:43.211Z,90.4
2018-06-03T03:51:44.576Z,90.6
2018-06-03T03:52:45.974Z,90.7
2018-06-03T03:53:47.342Z,90.7
2018-06-03T03:54:48.728Z,90.4
2018-06-03T03:55:50.107Z,90.1
2018-06-03T03:56:51.478Z,90.9
2018-06-03T03:57:52.842Z,90.7
2018-06-03T03:58:54.986Z,90.4
2018-06-03T03:59:58.137Z,90.7
2018-06-03T04:00:58.549Z,91.0
2018-06-03T04:01:59.919Z,90.5
2018-06-03T04:03:01.281Z,90.6
2018-06-03T04:04:02.643Z,90.8
2018-06-03T04:05:04.009Z,91.0
2018-06-03T04:06:05.372Z,91.0
2018-06-03T04:07:06.734Z,90.6
2018-06-03T04:08:08.103Z,90.4
2018-06-03T04:09:09.457Z,90.5
2018-06-03T04:10:10.826Z,90.8
2018-06-03T04:11:12.186Z,90.7
2018-06-03T04:12:13.550Z,91.0
2018-06-03T04:13:14.955Z,90.1
2018-06-03T04:14:16.271Z,90.2
2018-06-03T04:15:17.641Z,90.7
2018-06-03T04:16:18.997Z,90.5
2018-06-03T04:17:20.362Z,90.3
2018-06-03T04:18:21.731Z,90.5
2018-06-03T04:19:23.085Z,90.2
2018-06-03T04:20:24.450Z,90.2
2018-06-03T04:21:25.811Z,90.3
2018-06-03T04:22:27.173Z,90.2
2018-06-03T04:23:28.537Z,90.4
2018-06-03T04:24:29.909Z,90.7
2018-06-03T04:25:32.135Z,90.5
2018-06-03T04:26:32.582Z,90.3
2018-06-03T04:27:33.945Z,90.5
2018-06-03T04:28:35.309Z,90.2
2018-06-03T04:29:36.674Z,90.9
2018-06-03T04:30:38.031Z,90.6
2018-06-03T04:31:39.394Z,90.8
2018-06-03T04:32:40.758Z,90.7
2018-06-03T04:33:42.119Z,90.7
2018-06-03T04:34:43.487Z,90.6
2018-06-03T04:35:44.844Z,90.7
2018-06-03T04:36:46.221Z,90.5
2018-06-03T04:37:47.581Z,90.8
2018-06-03T04:38:48.947Z,90.5
2018-06-03T04:39:50.317Z,90.9
2018-06-03T04:40:51.678Z,91.1
2018-06-03T04:41:53.088Z,90.7
2018-06-03T04:42:54.419Z,90.6
2018-06-03T04:43:55.787Z,91.2
2018-06-03T04:44:57.145Z,91.4
2018-06-03T04:45:58.518Z,91.3
2018-06-03T04:46:59.877Z,91.5
2018-06-03T04:48:01.240Z,91.5
2018-06-03T04:49:02.603Z,91.5
2018-06-03T04:50:03.968Z,91.5
2018-06-03T04:51:05.329Z,91.2
2018-06-03T04:52:06.701Z,91.6
2018-06-03T04:53:08.057Z,91.3
2018-06-03T04:54:09.429Z,91.5
2018-06-03T04:55:10.789Z,91.3
2018-06-03T04:56:12.149Z,90.6
2018-06-03T04:57:13.513Z,91.3
2018-06-03T04:58:14.872Z,91.4
2018-06-03T04:59:16.243Z,91.5
2018-06-03T05:00:17.607Z,91.2
2018-06-03T05:01:18.969Z,91.3
2018-06-03T05:02:20.339Z,91.4
2018-06-03T05:03:21.697Z,91.2
2018-06-03T05:04:23.065Z,91.1
2018-06-03T05:05:24.422Z,91.3
2018-06-03T05:06:25.785Z,91.5
2018-06-03T05:07:27.159Z,91.5
2018-06-03T05:08:28.528Z,91.2
2018-06-03T05:09:29.891Z,91.7
2018-06-03T05:10:31.258Z,91.3
2018-06-03T05:11:32.577Z,91.4
2018-06-03T05:12:33.944Z,91.4
2018-06-03T05:13:35.309Z,91.3
2018-06-03T05:14:36.684Z,91.3
2018-06-03T05:15:38.040Z,91.3
2018-06-03T05:16:39.404Z,91.1
2018-06-03T05:17:40.762Z,91.9
2018-06-03T05:18:42.139Z,91.8
2018-06-03T05:19:43.507Z,91.5
2018-06-03T05:20:44.875Z,91.5
2018-06-03T05:21:46.244Z,91.7
2018-06-03T05:22:47.606Z,91.7
2018-06-03T05:23:48.967Z,92.0
2018-06-03T05:24:50.329Z,92.2
2018-06-03T05:25:51.707Z,92.1
2018-06-03T05:26:53.073Z,91.3
2018-06-03T05:27:54.442Z,92.0
2018-06-03T05:28:55.807Z,91.5
2018-06-03T05:29:57.174Z,91.7
2018-06-03T05:30:58.533Z,91.5
2018-06-03T05:31:59.895Z,91.8
2018-06-03T05:33:01.261Z,91.6
2018-06-03T05:34:02.634Z,91.7
2018-06-03T05:35:03.994Z,91.7
2018-06-03T05:36:05.359Z,91.7
2018-06-03T05:37:06.730Z,91.3
2018-06-03T05:38:08.095Z,91.7
2018-06-03T05:39:09.459Z,91.4
2018-06-03T05:40:10.828Z,91.4
2018-06-03T05:41:12.193Z,90.8
2018-06-03T05:42:13.559Z,90.4
2018-06-03T05:43:14.927Z,90.2
2018-06-03T05:44:16.290Z,89.8
2018-06-03T05:45:17.657Z,89.1
2018-06-03T05:46:19.016Z,88.2
2018-06-03T05:47:20.390Z,88.3
2018-06-03T05:48:21.749Z,87.4
2018-06-03T05:49:23.131Z,87.5
2018-06-03T05:50:24.491Z,87.0
2018-06-03T05:51:25.857Z,87.2
2018-06-03T05:52:27.227Z,86.6
2018-06-03T05:53:28.598Z,86.4
2018-06-03T05:54:29.962Z,86.1
2018-06-03T05:55:31.333Z,85.7
2018-06-03T05:56:32.703Z,86.4
2018-06-03T05:57:34.075Z,85.2
2018-06-03T05:58:35.437Z,85.2
2018-06-03T05:59:36.810Z,84.9
2018-06-03T06:00:38.173Z,84.7
2018-06-03T06:01:39.556Z,83.9
2018-06-03T06:02:40.914Z,83.6
2018-06-03T06:03:42.295Z,83.9
2018-06-03T06:04:43.664Z,83.3
2018-06-03T06:05:45.041Z,83.0
2018-06-03T06:06:46.416Z,82.9
2018-06-03T06:07:47.784Z,82.5
2018-06-03T06:08:49.156Z,82.9
2018-06-03T06:09:50.532Z,82.4
2018-06-03T06:10:51.914Z,81.7
2018-06-03T06:11:53.280Z,82.1
2018-06-03T06:12:54.664Z,82.0
2018-06-03T06:13:56.028Z,81.5
2018-06-03T06:14:57.401Z,81.8
2018-06-03T06:15:58.778Z,81.1
2018-06-03T06:17:00.154Z,81.1
2018-06-03T06:18:01.591Z,80.9
2018-06-03T06:19:02.926Z,80.8
2018-06-03T06:20:04.326Z,80.2
2018-06-03T06:21:05.678Z,80.7
2018-06-03T06:22:07.060Z,79.9
2018-06-03T06:23:08.433Z,80.0
2018-06-03T06:24:09.808Z,79.8
2018-06-03T06:25:11.188Z,79.5
2018-06-03T06:26:12.565Z,79.4
2018-06-03T06:27:13.936Z,79.1
2018-06-03T06:28:15.310Z,79.6
2018-06-03T06:29:16.681Z,78.7
2018-06-03T06:30:18.058Z,78.9
2018-06-03T06:31:19.429Z,78.6
2018-06-03T06:32:20.807Z,78.5
2018-06-03T06:33:22.183Z,78.1
2018-06-03T06:34:23.568Z,78.3
2018-06-03T06:35:24.944Z,77.9
2018-06-03T06:36:26.343Z,77.6
2018-06-03T06:37:27.697Z,77.9
2018-06-03T06:38:29.075Z,77.2
2018-06-03T06:39:30.453Z,77.1
2018-06-03T06:40:32.720Z,77.4
2018-06-03T06:41:34.102Z,76.9
2018-06-03T06:42:35.471Z,76.7
2018-06-03T06:43:36.848Z,76.7
2018-06-03T06:44:38.219Z,76.8
2018-06-03T06:45:39.595Z,76.4
2018-06-03T06:46:40.971Z,76.2
2018-06-03T06:47:42.366Z,76.1
2018-06-03T06:48:43.746Z,76.3
2018-06-03T06:49:45.122Z,75.3
2018-06-03T06:50:46.499Z,75.5
2018-06-03T06:51:47.877Z,75.7
2018-06-03T06:52:49.247Z,75.2
2018-06-03T06:53:50.624Z,74.9
2018-06-03T06:54:51.997Z,75.2
2018-06-03T06:55:53.369Z,74.6
2018-06-03T06:56:54.805Z,74.1
2018-06-03T06:57:56.173Z,74.4
2018-06-03T06:58:57.555Z,74.3
2018-06-03T06:59:58.932Z,74.2
2018-06-03T07:01:00.320Z,73.8
2018-06-03T07:02:02.484Z,73.4
2018-06-03T07:03:03.866Z,73.6
2018-06-03T07:04:05.242Z,73.9
2018-06-03T07:05:06.619Z,73.4
2018-06-03T07:06:07.996Z,72.9
2018-06-03T07:07:09.386Z,72.7
2018-06-03T07:08:10.760Z,72.2
2018-06-03T07:09:12.140Z,72.9
2018-06-03T07:10:13.521Z,72.2
2018-06-03T07:11:14.903Z,72.3
2018-06-03T07:12:16.281Z,72.1
2018-06-03T07:13:17.660Z,71.6
2018-06-03T07:14:19.038Z,71.8
2018-06-03T07:15:20.418Z,70.9
2018-06-03T07:16:21.800Z,71.1
2018-06-03T07:17:23.188Z,71.3
2018-06-03T07:18:24.579Z,71.1
2018-06-03T07:19:25.954Z,70.7
2018-06-03T07:20:27.331Z,70.4
2018-06-03T07:21:28.714Z,70.0
2018-06-03T07:22:30.148Z,69.8
2018-06-03T07:23:31.690Z,69.8
2018-06-03T07:24:33.074Z,69.5
2018-06-03T07:25:34.453Z,69.4
2018-06-03T07:26:35.836Z,69.0
2018-06-03T07:27:37.244Z,68.3
2018-06-03T07:28:38.623Z,68.4
2018-06-03T07:29:40.008Z,68.8
2018-06-03T07:30:41.386Z,69.0
2018-06-03T07:31:42.770Z,68.5
2018-06-03T07:32:44.151Z,68.7
2018-06-03T07:33:45.534Z,68.4
2018-06-03T07:34:46.918Z,68.1
2018-06-03T07:35:48.310Z,67.6
2018-06-03T07:36:49.701Z,67.8
2018-06-03T07:37:51.076Z,67.9
2018-06-03T07:38:52.470Z,68.1
2018-06-03T07:39:53.856Z,67.9
2018-06-03T07:40:55.241Z,67.3
2018-06-03T07:41:56.630Z,67.6
2018-06-03T07:42:58.029Z,67.3
2018-06-03T07:43:59.418Z,67.9
2018-06-03T07:45:00.798Z,67.8
2018-06-03T07:46:02.179Z,66.8
2018-06-03T07:47:03.561Z,67.1
2018-06-03T07:48:04.949Z,67.4
2018-06-03T07:49:06.340Z,67.4
2018-06-03T07:50:07.752Z,67.4
2018-06-03T07:51:09.156Z,67.0
2018-06-03T07:52:10.489Z,67.0
2018-06-03T07:53:11.890Z,66.7
2018-06-03T07:54:13.262Z,66.9
2018-06-03T07:55:14.643Z,66.8
2018-06-03T07:56:16.027Z,67.2
2018-06-03T07:57:17.442Z,66.5
2018-06-03T07:58:18.756Z,66.5
2018-06-03T07:59:20.127Z,66.3
2018-06-03T08:00:21.519Z,65.9
2018-06-03T08:01:22.892Z,65.7
2018-06-03T08:02:24.279Z,66.3
2018-06-03T08:03:25.656Z,65.8
2018-06-03T08:04:27.049Z,65.5
2018-06-03T08:05:28.424Z,65.3
2018-06-03T08:06:29.813Z,65.0
2018-06-03T08:07:31.213Z,64.7
2018-06-03T08:08:32.586Z,65.2
2018-06-03T08:09:33.972Z,64.9
2018-06-03T08:10:35.355Z,65.1
2018-06-03T08:11:36.745Z,64.8
2018-06-03T08:12:38.128Z,64.9
2018-06-03T08:13:39.567Z,64.8
2018-06-03T08:14:40.904Z,64.7
2018-06-03T08:15:42.288Z,64.8
2018-06-03T08:16:43.691Z,64.7
2018-06-03T08:17:45.075Z,64.8
2018-06-03T08:18:46.464Z,64.5
2018-06-03T08:19:47.840Z,64.5
2018-06-03T08:20:49.229Z,64.3
2018-06-03T08:21:50.614Z,64.5
2018-06-03T08:22:52.106Z,63.9
2018-06-03T08:23:53.358Z,63.8
2018-06-03T08:24:54.738Z,63.6
2018-06-03T08:25:56.123Z,63.8
2018-06-03T08:26:57.517Z,63.6
2018-06-03T08:27:58.910Z,63.2
2018-06-03T08:29:00.300Z,63.4
2018-06-03T08:30:01.724Z,62.7
2018-06-03T08:31:03.107Z,63.4
2018-06-03T08:32:04.497Z,63.3
2018-06-03T08:33:05.882Z,63.3
2018-06-03T08:34:07.261Z,63.6
2018-06-03T08:35:08.655Z,62.8
2018-06-03T08:36:10.043Z,63.1
2018-06-03T08:37:11.421Z,62.1
2018-06-03T08:38:12.814Z,62.4
2018-06-03T08:39:14.244Z,62.3
2018-06-03T08:40:15.573Z,62.3
2018-06-03T08:41:16.970Z,62.3
2018-06-03T08:42:18.359Z,62.5
2018-06-03T08:43:19.749Z,62.5
2018-06-03T08:44:21.137Z,62.3
2018-06-03T08:45:22.532Z,62.4
2018-06-03T08:46:23.913Z,62.2
2018-06-03T08:47:25.297Z,62.8
2018-06-03T08:48:26.702Z,62.5
2018-06-03T08:49:28.085Z,62.1
2018-06-03T08:50:29.494Z,62.1
2018-06-03T08:51:30.881Z,62.1
2018-06-03T08:52:32.265Z,62.1
2018-06-03T08:53:33.662Z,61.8
2018-06-03T08:54:35.049Z,61.7
2018-06-03T08:55:36.430Z,61.6
2018-06-03T08:56:37.826Z,61.6
2018-06-03T08:57:39.220Z,61.4
2018-06-03T08:58:40.616Z,61.1
2018-06-03T08:59:41.997Z,60.8
2018-06-03T09:00:43.386Z,60.7
2018-06-03T09:01:44.776Z,60.5
2018-06-03T09:02:46.173Z,60.5
2018-06-03T09:03:47.564Z,60.3
2018-06-03T09:04:48.950Z,60.0
2018-06-03T09:05:50.347Z,60.5
2018-06-03T09:06:51.750Z,59.9
2018-06-03T09:07:53.146Z,59.6
2018-06-03T09:08:54.535Z,60.0
2018-06-03T09:09:55.940Z,59.7
2018-06-03T09:10:57.327Z,60.1
2018-06-03T09:11:58.712Z,60.6
2018-06-03T09:13:00.109Z,60.4
2018-06-03T09:14:01.490Z,60.3
2018-06-03T09:15:02.899Z,60.3
2018-06-03T09:16:04.284Z,60.7
2018-06-03T09:17:05.694Z,60.9
2018-06-03T09:18:07.073Z,60.6
2018-06-03T09:19:08.468Z,61.0
2018-06-03T09:20:09.867Z,60.5
2018-06-03T09:21:11.249Z,60.4
2018-06-03T09:22:12.638Z,60.5
2018-06-03T09:23:14.024Z,59.7
2018-06-03T09:24:15.420Z,59.7
2018-06-03T09:25:16.805Z,59.4
2018-06-03T09:26:18.191Z,59.4
2018-06-03T09:27:19.585Z,58.9
2018-06-03T09:28:20.974Z,59.2
2018-06-03T09:29:22.360Z,59.2
2018-06-03T09:30:23.754Z,59.3
2018-06-03T09:31:25.144Z,59.3
2018-06-03T09:32:26.539Z,59.2
2018-06-03T09:33:27.928Z,59.4
2018-06-03T09:34:29.327Z,59.0
2018-06-03T09:35:30.716Z,58.7
2018-06-03T09:36:32.143Z,58.7
2018-06-03T09:37:33.533Z,58.5
2018-06-03T09:38:35.003Z,58.5
2018-06-03T09:39:36.398Z,58.7
2018-06-03T09:40:37.785Z,58.5
2018-06-03T09:41:39.170Z,58.1
2018-06-03T09:42:40.554Z,58.0
2018-06-03T09:43:41.951Z,57.7
2018-06-03T09:44:43.568Z,58.1
2018-06-03T09:45:44.953Z,57.5
2018-06-03T09:46:46.346Z,57.5
2018-06-03T09:47:47.740Z,57.6
2018-06-03T09:48:49.124Z,57.5
2018-06-03T09:49:50.513Z,57.5
2018-06-03T09:50:51.936Z,57.3
2018-06-03T09:51:53.379Z,57.2
2018-06-03T09:52:54.754Z,57.4
2018-06-03T09:53:56.157Z,57.6
2018-06-03T09:54:57.591Z,57.5
2018-06-03T09:55:59.093Z,56.8
2018-06-03T09:57:00.530Z,56.9
2018-06-03T09:58:02.640Z,56.8
2018-06-03T09:59:04.031Z,56.9
2018-06-03T10:00:05.424Z,56.3
2018-06-03T10:01:06.818Z,56.4
2018-06-03T10:02:08.203Z,56.1
2018-06-03T10:03:09.613Z,56.4
2018-06-03T10:04:11.055Z,55.8
2018-06-03T10:05:12.402Z,55.5
2018-06-03T10:06:13.813Z,55.5
2018-06-03T10:07:15.187Z,55.2
2018-06-03T10:08:16.589Z,55.2
2018-06-03T10:09:17.984Z,54.7
2018-06-03T10:10:19.472Z,55.1
2018-06-03T10:11:20.828Z,55.3
2018-06-03T10:12:22.243Z,54.6
2018-06-03T10:13:23.648Z,54.5
2018-06-03T10:14:25.036Z,54.4
2018-06-03T10:15:26.380Z,54.2
2018-06-03T10:16:27.784Z,54.4
2018-06-03T10:17:29.168Z,53.9
2018-06-03T10:18:30.555Z,53.8
2018-06-03T10:19:31.984Z,53.4
2018-06-03T10:20:33.384Z,53.1
2018-06-03T10:21:34.838Z,53.3
2018-06-03T10:22:36.205Z,53.1
2018-06-03T10:23:37.611Z,53.2
2018-06-03T10:24:39.041Z,53.0
2018-06-03T10:25:40.431Z,52.9
2018-06-03T10:26:41.847Z,52.7
2018-06-03T10:27:43.255Z,53.0
2018-06-03T10:28:44.659Z,53.0
2018-06-03T10:29:46.046Z,53.2
2018-06-03T10:30:47.459Z,53.2
2018-06-03T10:31:48.861Z,53.0
2018-06-03T10:32:50.295Z,52.3
2018-06-03T10:33:51.696Z,52.1
2018-06-03T10:34:53.091Z,52.2
2018-06-03T10:35:54.494Z,52.1
2018-06-03T10:36:55.891Z,52.1
2018-06-03T10:37:57.283Z,52.3
2018-06-03T10:38:58.693Z,52.5
2018-06-03T10:40:00.088Z,51.9
2018-06-03T10:41:01.536Z,51.8
2018-06-03T10:42:02.872Z,51.6
2018-06-03T10:43:04.294Z,51.5
2018-06-03T10:44:05.667Z,51.4
2018-06-03T10:45:07.105Z,51.6
2018-06-03T10:46:08.501Z,52.2
2018-06-03T10:47:09.891Z,51.8
2018-06-03T10:48:11.293Z,51.4
2018-06-03T10:49:12.694Z,51.5
2018-06-03T10:50:14.070Z,51.6
2018-06-03T10:51:15.480Z,51.2
2018-06-03T10:52:16.883Z,51.3
2018-06-03T10:53:18.281Z,51.9
2018-06-03T10:54:19.730Z,51.6
2018-06-03T10:55:21.073Z,51.8
2018-06-03T10:56:22.464Z,51.4
2018-06-03T10:57:23.855Z,51.6
2018-06-03T10:58:25.278Z,51.3
2018-06-03T10:59:26.668Z,51.6
2018-06-03T11:00:28.066Z,51.3
2018-06-03T11:01:29.457Z,51.4
2018-06-03T11:02:30.851Z,51.4
2018-06-03T11:03:32.269Z,50.8
2018-06-03T11:04:33.665Z,51.1
2018-06-03T11:05:35.112Z,51.1
2018-06-03T11:06:36.460Z,50.7
2018-06-03T11:07:37.849Z,50.9
2018-06-03T11:08:39.254Z,50.8
2018-06-03T11:09:40.658Z,50.7
2018-06-03T11:10:42.059Z,50.0
2018-06-03T11:11:43.478Z,50.1
2018-06-03T11:12:44.883Z,49.8
2018-06-03T11:13:46.272Z,50.1
2018-06-03T11:14:47.667Z,50.3
2018-06-03T11:15:49.054Z,50.3
2018-06-03T11:16:50.445Z,50.1
2018-06-03T11:17:51.840Z,50.0
2018-06-03T11:18:53.235Z,50.2
2018-06-03T11:19:54.640Z,50.2
2018-06-03T11:20:56.032Z,50.3
2018-06-03T11:21:57.429Z,50.4
2018-06-03T11:22:58.824Z,50.0
2018-06-03T11:24:00.216Z,49.8
2018-06-03T11:25:01.665Z,49.3
2018-06-03T11:26:03.108Z,49.1
2018-06-03T11:27:04.532Z,49.0
2018-06-03T11:28:05.988Z,48.9
2018-06-03T11:29:07.381Z,49.0
2018-06-03T11:30:08.815Z,49.0
2018-06-03T11:31:10.267Z,49.3
2018-06-03T11:32:11.654Z,49.4
2018-06-03T11:33:13.050Z,49.3
2018-06-03T11:34:14.451Z,49.6
2018-06-03T11:35:15.838Z,50.0
2018-06-03T11:36:17.278Z,50.3
2018-06-03T11:37:18.663Z,50.0
2018-06-03T11:38:20.212Z,50.2
2018-06-03T11:39:21.742Z,50.1
2018-06-03T11:40:23.079Z,50.1
2018-06-03T11:41:24.473Z,49.9
2018-06-03T11:42:25.859Z,50.1
2018-06-03T11:43:27.312Z,50.3
2018-06-03T11:44:28.707Z,50.2
2018-06-03T11:45:30.092Z,50.2
2018-06-03T11:46:32.037Z,50.0
2018-06-03T11:47:33.610Z,49.3
2018-06-03T11:48:35.010Z,49.5
2018-06-03T11:49:36.437Z,49.7
2018-06-03T11:50:37.815Z,49.4
2018-06-03T11:51:39.279Z,49.3
2018-06-03T11:52:40.614Z,49.3
2018-06-03T11:53:42.016Z,48.9
2018-06-03T11:54:43.492Z,48.6
2018-06-03T11:55:44.911Z,48.6
2018-06-03T11:56:46.299Z,48.5
2018-06-03T11:57:47.715Z,48.8
2018-06-03T11:58:49.097Z,49.0
2018-06-03T11:59:50.482Z,49.0
2018-06-03T12:00:51.886Z,48.0
2018-06-03T12:01:53.338Z,48.2
2018-06-03T12:02:54.720Z,48.2
2018-06-03T12:03:56.115Z,48.0
2018-06-03T12:04:57.502Z,47.6
2018-06-03T12:05:58.894Z,47.6
2018-06-03T12:07:00.329Z,47.8
2018-06-03T12:08:01.762Z,47.5
2018-06-03T12:09:03.172Z,46.7
2018-06-03T12:10:04.552Z,46.7
2018-06-03T12:11:05.942Z,46.8
2018-06-03T12:12:07.348Z,46.8
2018-06-03T12:13:08.736Z,47.0
2018-06-03T12:14:10.120Z,46.1
2018-06-03T12:15:12.287Z,46.5
2018-06-03T12:16:12.846Z,46.1
2018-06-03T12:17:14.242Z,46.0
2018-06-03T12:18:15.645Z,46.1
2018-06-03T12:19:17.038Z,45.7
2018-06-03T12:20:18.431Z,45.7
2018-06-03T12:21:19.953Z,45.4
2018-06-03T12:22:21.339Z,45.2
2018-06-03T12:23:22.731Z,45.0
2018-06-03T12:24:24.132Z,45.0
2018-06-03T12:25:25.541Z,45.0
2018-06-03T12:26:26.938Z,44.9
2018-06-03T12:27:28.329Z,44.9
2018-06-03T12:28:29.775Z,44.7
2018-06-03T12:29:31.090Z,44.5
2018-06-03T12:30:32.522Z,44.5
2018-06-03T12:31:33.927Z,44.6
2018-06-03T12:32:35.325Z,44.4
2018-06-03T12:33:36.729Z,44.5
2018-06-03T12:34:38.116Z,44.2
2018-06-03T12:35:39.510Z,44.4
2018-06-03T12:36:41.787Z,44.3
2018-06-03T12:37:42.348Z,44.4
2018-06-03T12:38:43.744Z,43.9
2018-06-03T12:39:45.156Z,43.4
2018-06-03T12:40:46.542Z,43.4
2018-06-03T12:41:47.961Z,43.2
2018-06-03T12:42:49.329Z,43.3
2018-06-03T12:43:50.737Z,43.1
2018-06-03T12:44:52.138Z,42.7
2018-06-03T12:45:53.534Z,42.8
2018-06-03T12:46:55.010Z,42.5
2018-06-03T12:47:56.410Z,43.3
2018-06-03T12:48:57.792Z,43.2
2018-06-03T12:49:59.200Z,42.6
2018-06-03T12:51:00.590Z,42.8
2018-06-03T12:52:02.000Z,42.8
2018-06-03T12:53:03.413Z,42.2
2018-06-03T12:54:04.799Z,43.1
2018-06-03T12:55:06.197Z,42.3
2018-06-03T12:56:07.582Z,42.4
2018-06-03T12:57:08.972Z,42.2
2018-06-03T12:58:10.365Z,42.4
2018-06-03T12:59:11.755Z,42.5
2018-06-03T13:00:13.145Z,42.4
2018-06-03T13:01:14.534Z,42.4
2018-06-03T13:02:16.050Z,42.2
2018-06-03T13:03:17.439Z,42.2
2018-06-03T13:04:18.829Z,42.1
2018-06-03T13:05:20.340Z,41.9
2018-06-03T13:06:21.786Z,42.1
2018-06-03T13:07:23.129Z,41.9
2018-06-03T13:08:24.537Z,41.7
2018-06-03T13:09:25.925Z,41.8
2018-06-03T13:10:27.313Z,41.7
2018-06-03T13:11:28.859Z,41.2
2018-06-03T13:12:30.255Z,42.0
2018-06-03T13:13:31.671Z,42.0
2018-06-03T13:14:33.069Z,41.5
2018-06-03T13:15:34.462Z,42.3
2018-06-03T13:16:35.845Z,41.7
2018-06-03T13:17:37.278Z,42.4
2018-06-03T13:18:38.727Z,42.2
2018-06-03T13:19:40.082Z,42.4
2018-06-03T13:20:41.475Z,42.2
2018-06-03T13:21:42.883Z,42.1
2018-06-03T13:22:44.265Z,42.3
2018-06-03T13:23:45.652Z,42.3
2018-06-03T13:24:47.046Z,42.1
2018-06-03T13:25:48.437Z,41.4
2018-06-03T13:26:49.816Z,41.8
2018-06-03T13:27:51.214Z,41.9
2018-06-03T13:28:52.602Z,41.9
2018-06-03T13:29:54.005Z,41.9
2018-06-03T13:30:55.397Z,42.1
2018-06-03T13:31:56.830Z,42.2
2018-06-03T13:32:58.133Z,41.7
2018-06-03T13:33:59.520Z,41.5
2018-06-03T13:35:00.909Z,41.6
2018-06-03T13:36:02.303Z,41.7
2018-06-03T13:37:03.713Z,41.5